createdAt,value
2022-08-16T00:01:11.793Z,3.47
2022-08-16T00:03:39.072Z,4.28
2022-08-16T00:06:07.787Z,4.22
2022-08-16T00:08:37.685Z,3.70
2022-08-16T00:11:15.710Z,3.90
2022-08-16T00:13:53.887Z,4.18
2022-08-16T00:17:06.714Z,3.70
2022-08-16T00:19:09.307Z,4.40
2022-08-16T00:21:35.844Z,3.80
2022-08-16T00:24:04.723Z,3.97
2022-08-16T00:26:36.516Z,3.60
2022-08-16T00:29:11.893Z,3.70
2022-08-16T00:31:47.195Z,4.32
2022-08-16T00:34:43.391Z,4.00
2022-08-16T00:37:11.730Z,3.70
2022-08-16T00:39:38.991Z,3.97
2022-08-16T00:42:09.976Z,3.80
2022-08-16T00:44:37.622Z,3.97
2022-08-16T00:47:10.322Z,3.75
2022-08-16T00:49:39.497Z,3.50
2022-08-16T00:52:29.409Z,3.58
2022-08-16T00:54:58.004Z,3.35
2022-08-16T00:57:24.543Z,3.55
2022-08-16T00:59:58.902Z,3.65
2022-08-16T01:02:31.352Z,4.10
2022-08-16T01:05:10.802Z,4.32
2022-08-16T01:07:50.783Z,3.92
2022-08-16T01:10:32.002Z,3.78
2022-08-16T01:13:05.572Z,4.05
2022-08-16T01:15:35.240Z,3.88
2022-08-16T01:18:04.948Z,3.92
2022-08-16T01:20:36.502Z,4.03
2022-08-16T01:23:27.789Z,4.40
2022-08-16T01:26:35.056Z,3.45
2022-08-16T01:29:10.095Z,3.95
2022-08-16T01:31:42.468Z,4.35
2022-08-16T01:34:24.882Z,3.80
2022-08-16T01:37:04.615Z,3.45
2022-08-16T01:39:31.804Z,4.05
2022-08-16T01:42:07.696Z,3.95
2022-08-16T01:44:39.230Z,4.13
2022-08-16T01:47:07.037Z,3.95
2022-08-16T01:49:45.431Z,3.88
2022-08-16T01:52:29.586Z,3.40
2022-08-16T01:54:58.116Z,3.90
2022-08-16T01:57:26.916Z,3.80
2022-08-16T01:59:54.689Z,3.85
2022-08-16T02:02:27.378Z,3.50
2022-08-16T02:04:55.814Z,3.60
2022-08-16T02:07:23.999Z,3.90
2022-08-16T02:09:59.027Z,3.40
2022-08-16T02:12:49.769Z,3.75
2022-08-16T02:15:16.551Z,4.00
2022-08-16T02:17:43.459Z,3.92
2022-08-16T02:20:12.091Z,3.72
2022-08-16T02:22:38.832Z,3.92
2022-08-16T02:25:10.553Z,3.90
2022-08-16T02:27:41.325Z,4.03
2022-08-16T02:30:37.229Z,3.47
2022-08-16T02:33:03.297Z,3.97
2022-08-16T02:35:30.229Z,3.65
2022-08-16T02:37:56.855Z,3.75
2022-08-16T02:40:28.711Z,3.83
2022-08-16T02:42:56.266Z,3.97
2022-08-16T02:45:27.712Z,3.85
2022-08-16T02:48:01.076Z,3.83
2022-08-16T02:50:54.729Z,3.72
2022-08-16T02:53:29.200Z,4.05
2022-08-16T02:55:56.472Z,4.20
2022-08-16T02:58:25.023Z,4.18
2022-08-16T03:00:53.224Z,4.07
2022-08-16T03:03:22.909Z,3.40
2022-08-16T03:05:52.547Z,3.67
2022-08-16T03:08:52.338Z,4.03
2022-08-16T03:11:16.435Z,3.75
2022-08-16T03:13:51.411Z,3.83
2022-08-16T03:16:38.312Z,4.07
2022-08-16T03:19:08.561Z,3.83
2022-08-16T03:21:37.832Z,3.67
2022-08-16T03:24:28.690Z,4.05
2022-08-16T03:26:58.775Z,4.05
2022-08-16T03:29:32.001Z,3.60
2022-08-16T03:32:01.367Z,3.88
2022-08-16T03:34:29.000Z,3.85
2022-08-16T03:36:57.384Z,3.60
2022-08-16T03:39:24.617Z,3.55
2022-08-16T03:41:59.750Z,3.85
2022-08-16T03:44:43.407Z,3.70
2022-08-16T03:47:11.669Z,3.78
2022-08-16T03:49:38.624Z,3.88
2022-08-16T03:52:05.507Z,3.65
2022-08-16T03:54:32.049Z,3.63
2022-08-16T03:57:02.444Z,3.63
2022-08-16T03:59:31.897Z,3.70
2022-08-16T04:02:00.852Z,3.97
2022-08-16T04:04:32.997Z,3.60
2022-08-16T04:07:02.932Z,3.72
2022-08-16T04:09:31.349Z,3.85
2022-08-16T04:12:04.693Z,3.83
2022-08-16T04:14:46.604Z,4.20
2022-08-16T04:17:15.624Z,3.80
2022-08-16T04:19:45.417Z,3.72
2022-08-16T04:22:12.959Z,4.15
2022-08-16T04:24:39.497Z,4.05
2022-08-16T04:27:09.036Z,3.78
2022-08-16T04:29:43.832Z,3.67
2022-08-16T04:32:13.885Z,3.75
2022-08-16T04:34:40.747Z,4.70
2022-08-16T04:37:07.661Z,4.07
2022-08-16T04:39:37.166Z,4.03
2022-08-16T04:42:17.683Z,3.85
2022-08-16T04:44:54.565Z,3.85
2022-08-16T04:47:31.552Z,3.50
2022-08-16T04:50:00.224Z,4.40
2022-08-16T04:52:35.090Z,3.95
2022-08-16T04:55:15.359Z,4.45
2022-08-16T04:57:42.596Z,3.88
2022-08-16T05:00:31.111Z,3.88
2022-08-16T05:03:08.335Z,4.00
2022-08-16T05:05:55.467Z,3.53
2022-08-16T05:08:29.178Z,5.00
2022-08-16T05:11:00.213Z,6.15
2022-08-16T05:13:40.958Z,7.68
2022-08-16T05:16:22.919Z,7.63
2022-08-16T05:18:51.970Z,8.35
2022-08-16T05:21:20.742Z,7.03
2022-08-16T05:23:55.610Z,8.27
2022-08-16T05:26:27.975Z,9.52
2022-08-16T05:28:56.802Z,10.00
2022-08-16T05:31:29.475Z,9.93
2022-08-16T05:33:57.712Z,14.38
2022-08-16T05:36:24.886Z,9.70
2022-08-16T05:39:05.631Z,9.02
2022-08-16T05:41:32.396Z,9.90
2022-08-16T05:44:05.441Z,11.27
2022-08-16T05:46:54.519Z,12.27
2022-08-16T05:49:22.527Z,9.95
2022-08-16T05:51:49.909Z,10.50
2022-08-16T05:54:24.811Z,11.13
2022-08-16T05:56:52.412Z,11.65
2022-08-16T05:59:19.581Z,13.80
2022-08-16T06:01:51.810Z,12.57
2022-08-16T06:04:35.328Z,11.73
2022-08-16T06:07:08.212Z,12.48
2022-08-16T06:09:42.661Z,12.05
2022-08-16T06:12:26.373Z,11.80
2022-08-16T06:14:59.824Z,12.20
2022-08-16T06:17:43.553Z,12.87
2022-08-16T06:20:25.609Z,12.40
2022-08-16T06:23:16.899Z,11.97
2022-08-16T06:25:52.218Z,11.87
2022-08-16T06:28:35.962Z,13.48
2022-08-16T06:31:04.637Z,12.65
2022-08-16T06:33:41.869Z,12.45
2022-08-16T06:36:10.299Z,12.98
2022-08-16T06:38:38.247Z,12.52
2022-08-16T06:41:22.061Z,12.07
2022-08-16T06:43:51.160Z,12.50
2022-08-16T06:46:34.242Z,12.60
2022-08-16T06:49:10.812Z,13.18
2022-08-16T06:51:48.098Z,13.80
2022-08-16T06:54:16.258Z,17.92
2022-08-16T06:56:42.741Z,12.52
2022-08-16T06:59:10.370Z,14.95
2022-08-16T07:01:43.202Z,14.48
2022-08-16T07:04:13.388Z,16.20
2022-08-16T07:06:59.636Z,13.15
2022-08-16T07:09:29.775Z,13.90
2022-08-16T07:12:03.293Z,14.13
2022-08-16T07:14:30.491Z,16.85
2022-08-16T07:16:58.871Z,14.52
2022-08-16T07:20:03.906Z,13.35
2022-08-16T07:22:37.297Z,13.13
2022-08-16T07:25:03.999Z,12.90
2022-08-16T07:27:33.552Z,30.08
2022-08-16T07:30:00.502Z,21.52
2022-08-16T07:32:29.297Z,16.60
2022-08-16T07:34:58.960Z,18.00
2022-08-16T07:37:25.585Z,17.92
2022-08-16T07:39:54.723Z,19.15
2022-08-16T07:42:28.252Z,16.08
2022-08-16T07:45:01.591Z,15.77
2022-08-16T07:47:31.450Z,14.45
2022-08-16T07:49:59.661Z,13.07
2022-08-16T07:52:29.768Z,12.73
2022-08-16T07:54:57.613Z,12.10
2022-08-16T07:57:24.883Z,12.15
2022-08-16T07:59:52.027Z,12.68
2022-08-16T08:02:20.491Z,13.90
2022-08-16T08:04:48.484Z,11.45
2022-08-16T08:07:16.174Z,11.68
2022-08-16T08:09:43.941Z,11.80
2022-08-16T08:12:31.231Z,12.65
2022-08-16T08:14:57.921Z,11.70
2022-08-16T08:17:24.962Z,11.20
2022-08-16T08:20:26.432Z,9.90
2022-08-16T08:23:00.965Z,10.32
2022-08-16T08:25:54.382Z,9.68
2022-08-16T08:28:17.299Z,9.65
2022-08-16T08:30:51.638Z,10.60
2022-08-16T08:33:28.662Z,10.13
2022-08-16T08:35:57.830Z,9.43
2022-08-16T08:38:45.278Z,9.00
2022-08-16T08:41:15.553Z,8.35
2022-08-16T08:43:46.546Z,8.95
2022-08-16T08:46:18.172Z,9.18
2022-08-16T08:49:01.988Z,8.55
2022-08-16T08:51:31.883Z,9.10
2022-08-16T08:53:58.816Z,9.13
2022-08-16T08:56:26.011Z,8.07
2022-08-16T08:58:59.157Z,8.63
2022-08-16T09:01:31.921Z,9.18
2022-08-16T09:04:07.042Z,8.18
2022-08-16T09:06:35.005Z,9.07
2022-08-16T09:09:02.124Z,8.18
2022-08-16T09:11:38.897Z,8.60
2022-08-16T09:14:08.489Z,7.65
2022-08-16T09:17:01.402Z,7.10
2022-08-16T09:19:34.264Z,7.50
2022-08-16T09:22:01.414Z,8.27
2022-08-16T09:24:46.388Z,7.05
2022-08-16T09:27:14.831Z,7.38
2022-08-16T09:29:44.513Z,7.47
2022-08-16T09:32:28.619Z,7.13
2022-08-16T09:34:58.294Z,6.40
2022-08-16T09:37:29.439Z,7.53
2022-08-16T09:39:59.671Z,6.90
2022-08-16T09:42:28.309Z,6.53
2022-08-16T09:45:11.696Z,6.70
2022-08-16T09:47:56.651Z,6.65
2022-08-16T09:50:37.190Z,7.00
2022-08-16T09:53:15.192Z,6.88
2022-08-16T09:55:49.608Z,6.65
2022-08-16T09:58:40.634Z,6.10
2022-08-16T10:01:05.301Z,6.10
2022-08-16T10:03:32.128Z,7.05
2022-08-16T10:05:58.859Z,6.90
2022-08-16T10:08:27.470Z,6.78
2022-08-16T10:11:13.352Z,6.43
2022-08-16T10:13:41.510Z,6.13
2022-08-16T10:18:56.787Z,6.70
2022-08-16T10:21:23.960Z,6.47
2022-08-16T10:23:53.596Z,6.50
2022-08-16T10:27:16.173Z,5.88
2022-08-16T10:29:11.546Z,5.97
2022-08-16T10:31:46.035Z,5.97
2022-08-16T10:34:30.833Z,5.75
2022-08-16T10:36:59.745Z,5.75
2022-08-16T10:39:26.309Z,5.75
2022-08-16T10:42:08.108Z,6.03
2022-08-16T10:44:34.698Z,5.60
2022-08-16T10:47:02.404Z,6.03
2022-08-16T10:49:29.218Z,5.38
2022-08-16T10:52:03.138Z,5.63
2022-08-16T10:57:32.972Z,6.55
2022-08-16T10:59:59.961Z,6.10
2022-08-16T11:02:57.740Z,6.20
2022-08-16T11:05:16.984Z,6.53
2022-08-16T11:07:52.433Z,7.22
2022-08-16T11:19:13.058Z,6.18
2022-08-16T11:24:42.710Z,6.45
2022-08-16T11:27:23.406Z,6.53
2022-08-16T11:29:54.784Z,6.95
2022-08-16T11:32:31.972Z,5.75
2022-08-16T11:35:14.660Z,6.53
2022-08-16T11:40:44.239Z,7.25
2022-08-16T11:43:12.908Z,6.40
2022-08-16T11:45:43.679Z,7.45
2022-08-16T11:48:20.267Z,6.50
2022-08-16T11:50:47.128Z,6.35
2022-08-16T11:53:15.262Z,5.72
2022-08-16T11:55:44.364Z,6.50
2022-08-16T11:58:12.023Z,6.20
2022-08-16T12:00:51.637Z,5.78
2022-08-16T12:03:25.000Z,5.47
2022-08-16T12:05:59.496Z,5.85
2022-08-16T12:08:27.196Z,6.03
2022-08-16T12:10:54.436Z,7.07
2022-08-16T12:13:26.828Z,8.15
2022-08-16T12:15:53.464Z,4.82
2022-08-16T12:18:20.710Z,8.75
2022-08-16T12:20:47.916Z,5.30
2022-08-16T12:23:15.292Z,6.38
2022-08-16T12:25:44.260Z,6.32
2022-08-16T12:28:11.103Z,5.13
2022-08-16T12:30:41.257Z,5.40
2022-08-16T12:33:09.833Z,5.13
2022-08-16T12:35:38.270Z,5.57
2022-08-16T12:38:38.077Z,6.05
2022-08-16T12:40:57.106Z,5.57
2022-08-16T12:43:25.295Z,5.70
2022-08-16T12:45:55.148Z,6.28
2022-08-16T12:48:44.326Z,5.78
2022-08-16T12:51:22.252Z,6.88
2022-08-16T12:53:53.274Z,6.10
2022-08-16T12:56:25.333Z,5.75
2022-08-16T13:01:26.830Z,5.60
2022-08-16T13:04:21.277Z,5.63
2022-08-16T13:06:45.345Z,5.55
2022-08-16T13:09:31.990Z,6.05
2022-08-16T13:12:24.935Z,6.28
2022-08-16T13:14:52.443Z,5.70
2022-08-16T13:17:26.437Z,6.20
2022-08-16T13:20:11.849Z,6.32
2022-08-16T13:25:08.931Z,6.72
2022-08-16T13:28:14.889Z,6.82
2022-08-16T13:30:37.336Z,6.57
2022-08-16T13:33:12.235Z,6.25
2022-08-16T13:35:42.742Z,7.13
2022-08-16T13:38:10.222Z,6.10
2022-08-16T13:40:48.370Z,7.00
2022-08-16T13:43:17.122Z,6.50
2022-08-16T13:45:44.874Z,7.47
2022-08-16T13:48:11.644Z,9.43
2022-08-16T13:50:51.626Z,8.27
2022-08-16T13:53:19.415Z,8.68
2022-08-16T13:58:35.231Z,7.95
2022-08-16T14:01:09.641Z,6.82
2022-08-16T14:03:40.345Z,7.10
2022-08-16T14:06:10.739Z,9.05
2022-08-16T14:08:41.890Z,6.88
2022-08-16T14:11:16.902Z,7.13
2022-08-16T14:13:44.180Z,6.70
2022-08-16T14:16:12.444Z,7.32
2022-08-16T14:18:50.172Z,9.52
2022-08-16T14:21:19.786Z,7.20
2022-08-16T14:23:49.207Z,6.63
2022-08-16T14:26:15.840Z,6.18
2022-08-16T14:28:44.160Z,8.77
2022-08-16T14:31:10.721Z,6.28
2022-08-16T14:33:37.348Z,8.48
2022-08-16T14:36:04.101Z,7.93
2022-08-16T14:38:37.578Z,8.52
2022-08-16T14:41:10.188Z,7.05
2022-08-16T14:43:37.312Z,7.07
2022-08-16T14:46:07.597Z,7.15
2022-08-16T14:48:34.722Z,7.00
2022-08-16T14:51:01.684Z,6.63
2022-08-16T14:53:31.295Z,6.45
2022-08-16T14:56:00.166Z,6.32
2022-08-16T14:58:35.080Z,5.78
2022-08-16T15:01:06.388Z,6.25
2022-08-16T15:03:37.476Z,5.78
2022-08-16T15:06:04.787Z,6.22
2022-08-16T15:08:36.713Z,5.65
2022-08-16T15:11:04.647Z,5.63
2022-08-16T15:13:31.209Z,5.88
2022-08-16T15:16:02.489Z,5.38
2022-08-16T15:18:31.683Z,4.82
2022-08-16T15:21:03.674Z,5.22
2022-08-16T15:23:33.727Z,5.77
2022-08-16T15:26:02.808Z,5.28
2022-08-16T15:28:33.586Z,4.47
2022-08-16T15:31:03.619Z,5.18
2022-08-16T15:33:33.398Z,4.70
2022-08-16T15:36:00.662Z,4.60
2022-08-16T15:38:54.907Z,5.13
2022-08-16T15:41:36.569Z,4.90
2022-08-16T15:44:11.015Z,4.68
2022-08-16T15:46:55.868Z,6.72
2022-08-16T15:49:34.545Z,4.70
2022-08-16T15:52:29.295Z,4.65
2022-08-16T15:54:58.319Z,4.28
2022-08-16T15:57:27.077Z,4.57
2022-08-16T16:00:04.046Z,5.05
2022-08-16T16:02:31.945Z,4.40
2022-08-16T16:05:10.430Z,4.65
2022-08-16T16:07:39.408Z,4.40
2022-08-16T16:10:13.435Z,4.30
2022-08-16T16:12:51.162Z,4.25
2022-08-16T16:15:23.125Z,4.30
2022-08-16T16:17:53.056Z,4.45
2022-08-16T16:20:22.222Z,4.88
2022-08-16T16:22:51.923Z,4.28
2022-08-16T16:25:19.680Z,5.07
2022-08-16T16:27:55.467Z,4.28
2022-08-16T16:30:33.236Z,4.22
2022-08-16T16:33:15.834Z,4.20
2022-08-16T16:35:55.715Z,4.10
2022-08-16T16:38:28.910Z,3.90
2022-08-16T16:40:56.539Z,4.13
2022-08-16T16:43:25.677Z,4.05
2022-08-16T16:45:58.413Z,4.15
2022-08-16T16:48:29.779Z,4.53
2022-08-16T16:51:08.717Z,4.47
2022-08-16T16:53:41.188Z,3.75
2022-08-16T16:56:10.409Z,3.85
2022-08-16T16:59:01.228Z,4.22
2022-08-16T17:01:59.562Z,4.60
2022-08-16T17:04:31.971Z,3.75
2022-08-16T17:07:01.085Z,4.30
2022-08-16T17:09:31.198Z,3.60
2022-08-16T17:11:58.606Z,3.83
2022-08-16T17:14:32.086Z,4.15
2022-08-16T17:17:06.519Z,3.95
2022-08-16T17:19:33.635Z,3.90
2022-08-16T17:22:07.754Z,3.50
2022-08-16T17:24:45.253Z,3.70
2022-08-16T17:27:12.355Z,5.15
2022-08-16T17:29:46.509Z,3.78
2022-08-16T17:35:10.292Z,3.78
2022-08-16T17:37:50.621Z,4.28
2022-08-16T17:39:27.123Z,3.92
2022-08-16T17:40:40.655Z,3.72
2022-08-16T17:43:08.128Z,4.53
2022-08-16T17:45:34.682Z,3.60
2022-08-16T17:48:01.587Z,4.00
2022-08-16T17:50:29.819Z,3.78
2022-08-16T17:52:57.336Z,3.97
2022-08-16T17:55:31.118Z,3.70
2022-08-16T17:57:58.531Z,4.15
2022-08-16T18:00:26.842Z,3.70
2022-08-16T18:03:16.252Z,3.92
2022-08-16T18:05:53.284Z,3.17
2022-08-16T18:08:22.307Z,3.67
2022-08-16T18:10:50.938Z,3.88
2022-08-16T18:13:22.110Z,3.55
2022-08-16T18:15:51.539Z,3.70
2022-08-16T18:18:21.254Z,3.47
2022-08-16T18:21:08.550Z,3.72
2022-08-16T18:23:36.532Z,3.83
2022-08-16T18:26:08.828Z,3.58
2022-08-16T18:31:06.438Z,4.00
2022-08-16T18:33:34.008Z,3.83
2022-08-16T18:36:21.124Z,3.70
2022-08-16T18:38:49.033Z,3.30
2022-08-16T18:41:15.999Z,3.47
2022-08-16T18:44:15.474Z,3.25
2022-08-16T18:46:29.242Z,3.35
2022-08-16T18:48:55.727Z,3.45
2022-08-16T18:51:25.189Z,3.33
2022-08-16T18:53:52.352Z,3.40
2022-08-16T18:56:18.794Z,3.63
2022-08-16T18:58:45.311Z,3.33
2022-08-16T19:01:11.848Z,3.50
2022-08-16T19:03:38.485Z,3.03
2022-08-16T19:06:14.047Z,3.90
2022-08-16T19:08:43.683Z,3.80
2022-08-16T19:11:16.387Z,3.75
2022-08-16T19:13:44.420Z,4.03
2022-08-16T19:16:12.770Z,3.53
2022-08-16T19:18:40.017Z,3.55
2022-08-16T19:21:08.257Z,3.70
2022-08-16T19:23:37.251Z,3.45
2022-08-16T19:26:23.438Z,3.55
2022-08-16T19:28:59.602Z,3.47
2022-08-16T19:31:33.501Z,3.67
2022-08-16T19:34:02.072Z,3.35
2022-08-16T19:36:37.447Z,3.60
2022-08-16T19:39:13.111Z,3.60
2022-08-16T19:41:42.851Z,4.10
2022-08-16T19:44:10.732Z,3.30
2022-08-16T19:46:38.408Z,3.22
2022-08-16T19:49:05.409Z,3.40
2022-08-16T19:51:32.265Z,3.40
2022-08-16T19:53:59.080Z,3.45
2022-08-16T19:56:26.880Z,3.80
2022-08-16T19:59:18.294Z,3.80
2022-08-16T20:01:42.597Z,3.38
2022-08-16T20:04:14.584Z,3.80
2022-08-16T20:06:41.809Z,3.30
2022-08-16T20:09:08.395Z,3.75
2022-08-16T20:11:37.189Z,3.50
2022-08-16T20:14:04.225Z,3.88
2022-08-16T20:16:30.738Z,3.75
2022-08-16T20:18:57.309Z,3.53
2022-08-16T20:21:24.465Z,3.60
2022-08-16T20:23:51.206Z,3.28
2022-08-16T20:26:18.939Z,3.78
2022-08-16T20:28:52.659Z,3.67
2022-08-16T20:31:23.967Z,4.32
2022-08-16T20:33:51.560Z,3.80
2022-08-16T20:36:18.056Z,3.65
2022-08-16T20:38:47.489Z,3.30
2022-08-16T20:41:15.493Z,3.35
2022-08-16T20:43:42.285Z,3.90
2022-08-16T20:46:11.609Z,3.72
2022-08-16T20:48:42.066Z,3.80
2022-08-16T20:51:10.830Z,3.58
2022-08-16T20:53:42.037Z,3.70
2022-08-16T20:56:09.766Z,3.55
2022-08-16T20:58:37.423Z,3.75
2022-08-16T21:01:08.639Z,3.42
2022-08-16T21:03:35.484Z,3.15
2022-08-16T21:06:02.413Z,3.80
2022-08-16T21:08:53.208Z,3.67
2022-08-16T21:11:16.254Z,3.65
2022-08-16T21:13:43.154Z,3.45
2022-08-16T21:16:10.199Z,3.85
2022-08-16T21:18:36.688Z,3.40
2022-08-16T21:21:03.292Z,3.40
2022-08-16T21:23:30.144Z,3.63
2022-08-16T21:25:58.757Z,3.53
2022-08-16T21:28:38.665Z,3.92
2022-08-16T21:31:10.871Z,3.75
2022-08-16T21:33:37.541Z,3.75
2022-08-16T21:36:04.341Z,3.33
2022-08-16T21:38:31.429Z,3.40
2022-08-16T21:41:02.369Z,3.50
2022-08-16T21:43:32.284Z,3.47
2022-08-16T21:46:03.957Z,3.60
2022-08-16T21:48:34.958Z,4.03
2022-08-16T21:51:12.139Z,3.50
2022-08-16T21:53:39.008Z,3.70
2022-08-16T21:56:06.458Z,3.67
2022-08-16T21:58:34.540Z,3.75
2022-08-16T22:01:02.631Z,3.50
2022-08-16T22:03:33.081Z,4.20
2022-08-16T22:06:12.392Z,3.72
2022-08-16T22:08:49.411Z,3.90
2022-08-16T22:11:21.942Z,3.85
2022-08-16T22:13:51.134Z,3.60
2022-08-16T22:16:29.327Z,3.97
2022-08-16T22:18:57.142Z,3.60
2022-08-16T22:21:23.708Z,3.33
2022-08-16T22:23:56.815Z,4.10
2022-08-16T22:26:29.976Z,4.05
2022-08-16T22:29:01.721Z,3.10
2022-08-16T22:31:28.820Z,3.63
2022-08-16T22:33:56.703Z,4.10
2022-08-16T22:36:23.709Z,3.97
2022-08-16T22:38:58.011Z,3.70
2022-08-16T22:41:25.535Z,3.83
2022-08-16T22:43:52.614Z,3.80
2022-08-16T22:46:19.598Z,3.28
2022-08-16T22:48:49.986Z,3.80
2022-08-16T22:51:18.334Z,3.83
2022-08-16T22:53:45.033Z,3.88
2022-08-16T22:56:11.554Z,3.75
2022-08-16T22:58:38.565Z,3.60
2022-08-16T23:01:09.772Z,3.65
2022-08-16T23:03:37.458Z,3.95
2022-08-16T23:06:04.952Z,4.38
2022-08-16T23:08:38.234Z,4.10
2022-08-16T23:11:07.765Z,3.50
2022-08-16T23:13:34.367Z,4.00
2022-08-16T23:16:10.611Z,3.70
2022-08-16T23:18:39.226Z,3.65
2022-08-16T23:21:08.924Z,3.47
2022-08-16T23:23:36.844Z,3.50
2022-08-16T23:26:44.235Z,3.75
2022-08-16T23:28:50.864Z,3.80
2022-08-16T23:31:17.617Z,3.63
2022-08-16T23:33:44.324Z,3.72
2022-08-16T23:36:11.440Z,3.67
2022-08-16T23:38:39.689Z,4.05
2022-08-16T23:41:11.428Z,3.67
2022-08-16T23:43:41.828Z,3.83
2022-08-16T23:46:15.002Z,3.85
2022-08-16T23:49:58.909Z,3.97
2022-08-16T23:51:29.397Z,3.80
2022-08-16T23:53:56.273Z,3.78
2022-08-16T23:56:22.860Z,4.10
2022-08-16T23:58:54.293Z,3.85
